Time;durP1;ratioP1;P1;durP2;ratioP2;P2;SDS_P1;SDS_P2;PMS_P1;PMS_P2;Temp;Humidity;BMP_temperature;BMP_pressure;BME280_temperature;BME280_humidity;BME280_pressure;Samples;Min_cycle;Max_cycle;Signal;HPM_P1;HPM_P2
2022/11/14 00:01:11;;;;;;;4.10;2.00;;;;;;;12.71;100.00;100024.50;4947017;29;20083;-45
2022/11/14 00:03:38;;;;;;;4.88;1.33;;;;;;;12.68;100.00;100030.03;4940530;29;20051;-43
2022/11/14 00:06:06;;;;;;;1.52;1.00;;;;;;;12.67;100.00;100029.22;4941263;29;20047;-45
2022/11/14 00:08:33;;;;;;;1.60;0.65;;;;;;;12.61;100.00;100027.94;4951485;29;20147;-47
2022/11/14 00:11:00;;;;;;;3.53;1.45;;;;;;;12.63;100.00;100033.91;4929792;29;20178;-43
2022/11/14 00:13:26;;;;;;;2.40;0.90;;;;;;;12.65;100.00;100028.81;4941018;29;20058;-42
2022/11/14 00:15:53;;;;;;;3.33;1.23;;;;;;;12.64;100.00;100021.66;4951264;29;20051;-44
2022/11/14 00:18:21;;;;;;;2.10;0.90;;;;;;;12.61;100.00;100025.19;4947409;29;20043;-48
2022/11/14 00:20:50;;;;;;;1.40;0.88;;;;;;;12.57;100.00;100029.91;4950785;29;20584;-46
2022/11/14 00:23:17;;;;;;;1.48;1.00;;;;;;;12.59;100.00;100026.72;4951590;29;20414;-43
2022/11/14 00:25:45;;;;;;;1.63;1.02;;;;;;;12.51;100.00;100023.06;4951477;29;20401;-43
2022/11/14 00:28:11;;;;;;;3.80;2.53;;;;;;;12.45;100.00;100024.56;4950820;29;20063;-47
2022/11/14 00:30:38;;;;;;;1.85;1.00;;;;;;;12.45;100.00;100024.56;4951022;29;20532;-47
2022/11/14 00:33:05;;;;;;;2.90;1.33;;;;;;;12.46;100.00;100019.81;4950899;29;20412;-43
2022/11/14 00:35:32;;;;;;;4.65;1.42;;;;;;;12.42;100.00;100030.03;4941595;29;20198;-47
2022/11/14 00:37:58;;;;;;;4.68;1.63;;;;;;;12.39;100.00;100033.59;4946230;29;20550;-48
2022/11/14 00:40:27;;;;;;;2.78;1.45;;;;;;;12.35;100.00;100016.88;4951334;29;20070;-45
2022/11/14 00:42:53;;;;;;;3.35;1.80;;;;;;;12.33;100.00;100029.53;4942035;29;20142;-43
2022/11/14 00:45:20;;;;;;;3.92;1.27;;;;;;;12.28;100.00;100018.75;4948159;29;20417;-44
2022/11/14 00:47:47;;;;;;;2.53;1.40;;;;;;;12.23;100.00;100020.66;4950890;29;20053;-45
2022/11/14 00:50:16;;;;;;;4.68;1.63;;;;;;;12.24;100.00;100021.47;4950392;28;20450;-43
2022/11/14 00:52:42;;;;;;;4.40;2.10;;;;;;;12.21;100.00;100022.22;4942889;29;20043;-42
2022/11/14 00:55:09;;;;;;;4.35;1.60;;;;;;;12.14;100.00;100017.38;4948871;29;20061;-44
2022/11/14 00:57:37;;;;;;;3.95;1.48;;;;;;;12.11;100.00;100011.75;4937935;29;20415;-43
2022/11/14 01:00:05;;;;;;;6.45;2.28;;;;;;;12.06;100.00;100006.53;4950722;29;20051;-43
2022/11/14 01:02:32;;;;;;;3.65;1.50;;;;;;;12.02;100.00;100014.00;4942080;29;20497;-42
2022/11/14 01:04:59;;;;;;;4.38;1.52;;;;;;;12.02;100.00;100014.00;4945228;29;20039;-42
2022/11/14 01:07:26;;;;;;;11.20;4.47;;;;;;;12.01;100.00;100006.84;4950504;29;20421;-43
2022/11/14 01:09:53;;;;;;;4.93;1.35;;;;;;;11.97;100.00;99990.13;4942437;29;20409;-43
2022/11/14 01:12:19;;;;;;;5.25;1.70;;;;;;;11.94;100.00;99990.09;4950514;29;20054;-46
2022/11/14 01:14:46;;;;;;;5.05;2.35;;;;;;;11.95;100.00;99988.91;4950383;29;20052;-45
2022/11/14 01:17:13;;;;;;;2.92;1.00;;;;;;;11.93;100.00;99983.75;4950852;29;20066;-44
2022/11/14 01:19:40;;;;;;;1.98;1.38;;;;;;;11.96;100.00;99977.47;4946534;29;20533;-44
2022/11/14 01:22:07;;;;;;;6.05;1.95;;;;;;;11.99;100.00;99975.91;4935119;29;20111;-43
2022/11/14 01:24:34;;;;;;;7.28;2.05;;;;;;;11.99;100.00;99987.00;4946890;29;20556;-42
2022/11/14 01:27:01;;;;;;;2.13;1.00;;;;;;;11.99;100.00;99995.31;4942954;29;20051;-43
2022/11/14 01:29:28;;;;;;;3.03;0.85;;;;;;;11.97;100.00;99989.31;4948127;29;20075;-44
2022/11/14 01:31:55;;;;;;;2.05;0.90;;;;;;;11.98;100.00;99979.84;4938004;29;20055;-43
2022/11/14 01:34:22;;;;;;;1.90;1.10;;;;;;;11.97;100.00;99986.56;4950485;29;20059;-45
2022/11/14 01:36:52;;;;;;;2.30;0.88;;;;;;;12.00;100.00;99978.28;4950500;29;20047;-42
2022/11/14 01:39:19;;;;;;;3.05;0.82;;;;;;;12.05;100.00;99968.84;4948375;29;20424;-48
2022/11/14 01:41:46;;;;;;;1.38;0.75;;;;;;;12.02;100.00;99975.16;4950228;29;20091;-43
2022/11/14 01:44:36;;;;;;;1.05;0.50;;;;;;;12.00;100.00;99960.84;4937543;29;20039;-45
2022/11/14 01:47:04;;;;;;;3.42;0.82;;;;;;;11.96;100.00;99960.00;4950550;29;20055;-43
2022/11/14 01:49:37;;;;;;;6.13;1.10;;;;;;;11.95;100.00;99961.97;4950286;29;20059;-44
2022/11/14 01:52:16;;;;;;;5.35;1.35;;;;;;;11.98;100.00;99957.66;4943180;29;20067;-42
2022/11/14 01:54:47;;;;;;;5.97;1.70;;;;;;;11.95;100.00;99952.84;4950555;29;20047;-43
2022/11/14 01:57:19;;;;;;;3.75;1.35;;;;;;;11.97;100.00;99948.53;4946472;29;20592;-43
2022/11/14 01:59:50;;;;;;;7.18;2.00;;;;;;;11.93;100.00;99947.69;4942577;29;20126;-43
2022/11/14 02:02:20;;;;;;;4.32;1.45;;;;;;;11.93;100.00;99952.44;4945259;28;20051;-43
2022/11/14 02:04:59;;;;;;;3.72;1.85;;;;;;;11.95;100.00;99952.84;4953411;28;20520;-44
2022/11/14 02:07:36;;;;;;;3.03;1.33;;;;;;;11.96;100.00;99937.81;4952922;29;20051;-45
2022/11/14 02:10:14;;;;;;;3.30;1.00;;;;;;;11.93;100.00;99933.00;4954210;29;20047;-45
2022/11/14 02:12:41;;;;;;;2.97;1.10;;;;;;;11.88;100.00;99927.78;4953998;29;20051;-43
2022/11/14 02:15:08;;;;;;;4.32;0.90;;;;;;;11.89;100.00;99921.03;4954120;29;20058;-48
2022/11/14 02:17:35;;;;;;;4.50;1.35;;;;;;;11.89;100.00;99916.31;4954471;28;20138;-44
2022/11/14 02:20:02;;;;;;;6.85;1.42;;;;;;;11.89;100.00;99915.50;4953727;29;20047;-43
2022/11/14 02:22:31;;;;;;;1.58;0.80;;;;;;;11.87;100.00;99921.44;4953765;29;20051;-42
2022/11/14 02:24:58;;;;;;;3.60;0.88;;;;;;;11.87;100.00;99907.56;4953343;29;20051;-51
2022/11/14 02:27:25;;;;;;;2.20;0.82;;;;;;;11.90;100.00;99917.09;4952323;29;20125;-43
2022/11/14 02:29:52;;;;;;;1.58;1.23;;;;;;;11.90;100.00;99917.09;4952338;28;20494;-43
2022/11/14 02:32:19;;;;;;;2.33;0.90;;;;;;;11.89;100.00;99926.59;4950474;28;20055;-47
2022/11/14 02:34:45;;;;;;;1.80;0.88;;;;;;;11.90;100.00;99920.69;4953552;28;20043;-45
2022/11/14 02:37:12;;;;;;;5.40;1.10;;;;;;;11.89;100.00;99924.63;4953303;29;20122;-44
2022/11/14 02:39:40;;;;;;;2.40;1.15;;;;;;;11.91;100.00;99907.63;4951994;29;20054;-43
2022/11/14 02:42:07;;;;;;;2.42;1.05;;;;;;;11.92;100.00;99898.13;4953298;29;20050;-46
2022/11/14 02:44:33;;;;;;;3.65;0.80;;;;;;;11.92;100.00;99904.47;4953291;29;20055;-44
2022/11/14 02:47:00;;;;;;;3.40;1.13;;;;;;;11.91;100.00;99902.09;4953469;29;20086;-43
2022/11/14 02:49:27;;;;;;;2.08;1.00;;;;;;;11.86;100.00;99913.50;4952898;29;20494;-43
2022/11/14 02:51:54;;;;;;;2.95;1.60;;;;;;;11.86;100.00;99921.81;4953367;28;20051;-45
2022/11/14 02:54:20;;;;;;;4.60;1.33;;;;;;;11.89;100.00;99912.72;4949440;28;20479;-43
2022/11/14 02:56:47;;;;;;;4.47;0.90;;;;;;;11.91;100.00;99913.19;4951540;28;20054;-43
2022/11/14 02:59:14;;;;;;;4.72;0.93;;;;;;;11.92;100.00;99903.66;4952248;28;20054;-43
2022/11/14 03:01:41;;;;;;;2.10;1.00;;;;;;;11.88;100.00;99886.19;5004370;23;20136;-43
2022/11/14 03:04:09;;;;;;;3.03;1.52;;;;;;;11.83;100.00;99887.31;4991825;28;20046;-43
2022/11/14 03:06:36;;;;;;;4.63;1.33;;;;;;;11.81;100.00;99886.88;4974014;28;20069;-47
2022/11/14 03:09:03;;;;;;;3.55;1.08;;;;;;;11.80;100.00;99878.94;4992280;28;20487;-44
2022/11/14 03:11:30;;;;;;;4.40;1.58;;;;;;;11.81;100.00;99875.00;4991490;28;20046;-46
2022/11/14 03:13:58;;;;;;;2.90;1.15;;;;;;;11.80;100.00;99865.06;4991168;28;20046;-44
2022/11/14 03:16:26;;;;;;;2.55;1.70;;;;;;;11.81;100.00;99867.44;4991263;28;20042;-43
2022/11/14 03:18:52;;;;;;;5.50;1.38;;;;;;;11.81;100.00;99858.34;4990982;28;20077;-44
2022/11/14 03:21:21;;;;;;;7.68;1.58;;;;;;;11.82;100.00;99854.38;4989584;28;20050;-44
2022/11/14 03:23:48;;;;;;;3.63;1.50;;;;;;;11.81;100.00;99855.59;4973725;28;20053;-44
2022/11/14 03:26:15;;;;;;;2.38;1.38;;;;;;;11.82;100.00;99857.16;4974565;28;20496;-48
2022/11/14 03:28:42;;;;;;;6.93;1.42;;;;;;;11.87;100.00;99865.16;4990824;28;20132;-44
2022/11/14 03:31:11;;;;;;;3.45;1.23;;;;;;;11.91;100.00;99866.81;4990877;28;20038;-44
2022/11/14 03:33:39;;;;;;;3.67;1.92;;;;;;;11.89;100.00;99860.03;4990862;28;20082;-48
2022/11/14 03:36:06;;;;;;;5.88;1.40;;;;;;;11.84;100.00;99868.69;4991039;28;20042;-44
2022/11/14 03:38:33;;;;;;;2.20;1.45;;;;;;;11.85;100.00;99859.19;4990830;28;20061;-44
2022/11/14 03:41:00;;;;;;;2.38;1.60;;;;;;;11.85;100.00;99853.66;4991118;28;20054;-44
2022/11/14 03:43:32;;;;;;;3.92;1.20;;;;;;;11.83;100.00;99850.47;4989102;28;20054;-45
2022/11/14 03:46:01;;;;;;;4.60;1.45;;;;;;;11.81;100.00;99852.81;4977762;28;20492;-46
2022/11/14 03:48:28;;;;;;;1.75;1.27;;;;;;;11.81;100.00;99847.28;4990851;28;20053;-43
2022/11/14 03:50:56;;;;;;;4.18;1.67;;;;;;;11.83;100.00;99850.47;4989887;28;20046;-44
2022/11/14 03:53:23;;;;;;;6.35;1.80;;;;;;;11.83;100.00;99842.13;4990317;28;20073;-43
2022/11/14 03:55:51;;;;;;;6.95;1.70;;;;;;;11.84;100.00;99840.94;4990468;28;20046;-43
2022/11/14 03:58:18;;;;;;;3.13;1.40;;;;;;;11.82;100.00;99846.88;4990732;28;20554;-44
2022/11/14 04:00:45;;;;;;;2.05;1.40;;;;;;;11.84;100.00;99849.25;4990304;28;20054;-44
2022/11/14 04:03:11;;;;;;;1.90;1.05;;;;;;;11.86;100.00;99844.16;4990301;28;20539;-45
2022/11/14 04:05:38;;;;;;;5.05;2.13;;;;;;;11.86;100.00;99838.63;4989411;28;20161;-44
2022/11/14 04:08:06;;;;;;;3.88;1.50;;;;;;;11.84;100.00;99846.50;4990245;28;20066;-45
2022/11/14 04:10:33;;;;;;;4.80;1.75;;;;;;;11.82;100.00;99840.53;4990174;28;20062;-44
2022/11/14 04:12:59;;;;;;;4.13;2.00;;;;;;;11.80;100.00;99823.47;4990071;28;20058;-45
2022/11/14 04:15:26;;;;;;;2.42;0.98;;;;;;;11.80;100.00;99826.25;4990603;28;20066;-44
2022/11/14 04:17:53;;;;;;;4.18;1.58;;;;;;;11.80;100.00;99829.81;4990079;28;20153;-45
2022/11/14 04:20:19;;;;;;;4.65;1.65;;;;;;;11.85;100.00;99834.22;4989016;28;20064;-46
2022/11/14 04:22:46;;;;;;;4.40;1.63;;;;;;;11.87;100.00;99831.88;4989917;28;20046;-46
2022/11/14 04:25:13;;;;;;;4.15;2.22;;;;;;;11.90;100.00;99834.72;4989379;28;20129;-44
2022/11/14 04:27:40;;;;;;;7.55;2.67;;;;;;;11.91;100.00;99829.97;4972364;28;20140;-45
2022/11/14 04:30:11;;;;;;;6.15;2.63;;;;;;;11.91;100.00;99824.41;4989625;28;20568;-46
2022/11/14 04:32:37;;;;;;;7.60;2.28;;;;;;;11.86;100.00;99830.28;4990251;28;20057;-44
2022/11/14 04:35:04;;;;;;;8.38;1.90;;;;;;;11.83;100.00;99829.06;4989896;28;20056;-44
2022/11/14 04:37:31;;;;;;;4.25;1.80;;;;;;;11.82;100.00;99827.47;4989671;28;20427;-44
2022/11/14 04:40:01;;;;;;;4.50;1.75;;;;;;;11.81;100.00;99825.09;4989856;28;20048;-44
2022/11/14 04:42:28;;;;;;;2.47;1.70;;;;;;;11.82;100.00;99833.00;4989738;28;20046;-44
2022/11/14 04:44:54;;;;;;;4.93;1.98;;;;;;;11.83;100.00;99831.84;4989577;28;20042;-44
2022/11/14 04:47:21;;;;;;;6.10;2.00;;;;;;;11.82;100.00;99843.31;4971957;28;20477;-43
2022/11/14 04:49:48;;;;;;;6.75;2.72;;;;;;;11.81;100.00;99838.94;4988628;28;20431;-44
2022/11/14 04:52:15;;;;;;;7.15;3.15;;;;;;;11.78;100.00;99836.91;4989718;28;20549;-44
2022/11/14 04:54:42;;;;;;;4.55;3.05;;;;;;;11.76;100.00;99833.69;4987138;28;20050;-44
2022/11/14 04:57:08;;;;;;;6.82;3.42;;;;;;;11.72;100.00;99822.56;4989306;28;20054;-46
2022/11/14 04:59:35;;;;;;;5.30;2.80;;;;;;;11.70;100.00;99822.16;4989323;28;20161;-50
2022/11/14 05:02:02;;;;;;;5.18;2.97;;;;;;;11.67;100.00;99819.28;4989170;28;20415;-44
2022/11/14 05:04:29;;;;;;;6.82;3.78;;;;;;;11.69;100.00;99814.19;4972280;28;20053;-44
2022/11/14 05:06:56;;;;;;;5.65;3.72;;;;;;;11.67;100.00;99822.88;4990043;28;20053;-44
2022/11/14 05:09:23;;;;;;;10.07;3.10;;;;;;;11.65;100.00;99810.56;4989169;28;20126;-45
2022/11/14 05:11:50;;;;;;;9.40;3.88;;;;;;;11.63;100.00;99814.50;4989254;28;20042;-46
2022/11/14 05:14:17;;;;;;;5.30;4.20;;;;;;;11.60;100.00;99806.94;4989414;28;20141;-44
2022/11/14 05:16:44;;;;;;;5.38;4.10;;;;;;;11.61;100.00;99805.75;4989596;28;20043;-44
2022/11/14 05:19:10;;;;;;;11.35;5.18;;;;;;;11.62;100.00;99804.56;4988352;28;20150;-49
2022/11/14 05:21:37;;;;;;;6.80;4.18;;;;;;;11.67;100.00;99810.97;4989137;28;20082;-45
2022/11/14 05:24:04;;;;;;;10.77;4.97;;;;;;;11.67;100.00;99808.22;4988947;28;20046;-44
2022/11/14 05:26:31;;;;;;;9.98;5.43;;;;;;;11.64;100.00;99815.31;4989000;28;20056;-44
2022/11/14 05:28:57;;;;;;;11.82;5.93;;;;;;;11.62;100.00;99812.88;4989030;28;20503;-44
2022/11/14 05:31:24;;;;;;;9.75;5.57;;;;;;;11.61;100.00;99821.59;4988943;28;20504;-44
2022/11/14 05:33:51;;;;;;;12.27;5.82;;;;;;;11.59;100.00;99812.84;4989157;28;20046;-44
2022/11/14 05:36:18;;;;;;;10.77;5.43;;;;;;;11.60;100.00;99812.47;4991229;28;20515;-46
2022/11/14 05:38:45;;;;;;;12.90;7.45;;;;;;;11.60;100.00;99809.69;4993132;28;20046;-46
2022/11/14 05:41:14;;;;;;;8.27;5.55;;;;;;;11.58;100.00;99808.47;4993574;28;20049;-45
2022/11/14 05:43:41;;;;;;;9.20;4.80;;;;;;;11.51;100.00;99795.31;4992748;28;20047;-44
2022/11/14 05:46:11;;;;;;;9.98;5.45;;;;;;;11.49;100.00;99791.34;4993339;28;20042;-44
2022/11/14 05:48:39;;;;;;;11.88;5.90;;;;;;;11.46;100.00;99797.63;4992192;28;20069;-44
2022/11/14 05:51:08;;;;;;;6.05;4.45;;;;;;;11.46;100.00;99797.63;4992725;28;20072;-44
2022/11/14 05:53:35;;;;;;;10.38;4.47;;;;;;;11.45;100.00;99791.28;4992951;28;20054;-44
2022/11/14 05:56:09;;;;;;;10.07;4.97;;;;;;;11.43;100.00;99781.75;4992764;28;20046;-44
2022/11/14 05:58:36;;;;;;;8.63;5.28;;;;;;;11.42;100.00;99785.66;4993927;28;20050;-44
2022/11/14 06:01:11;;;;;;;6.68;4.18;;;;;;;11.42;100.00;99780.94;5005939;28;20649;-44
2022/11/14 06:03:41;;;;;;;6.40;4.13;;;;;;;11.44;100.00;99786.09;4993063;28;20054;-45
2022/11/14 06:06:11;;;;;;;5.70;4.18;;;;;;;11.43;100.00;99771.44;4992691;28;20149;-44
2022/11/14 06:08:38;;;;;;;6.80;3.88;;;;;;;11.43;100.00;99765.91;4992716;28;20038;-47
2022/11/14 06:11:08;;;;;;;6.55;4.38;;;;;;;11.40;100.00;99766.66;4992540;28;20057;-44
2022/11/14 06:13:36;;;;;;;5.25;3.72;;;;;;;11.37;100.00;99755.50;4992833;28;20141;-45
2022/11/14 06:16:05;;;;;;;5.90;4.35;;;;;;;11.36;100.00;99756.66;4991990;28;20121;-44
2022/11/14 06:18:33;;;;;;;5.47;3.65;;;;;;;11.33;100.00;99752.69;4983496;28;20500;-44
2022/11/14 06:21:04;;;;;;;8.00;3.78;;;;;;;11.34;100.00;99747.94;4975210;28;20046;-44
2022/11/14 06:23:31;;;;;;;8.43;3.53;;;;;;;11.33;100.00;99738.81;4992661;28;20042;-47
2022/11/14 06:26:04;;;;;;;6.07;3.28;;;;;;;11.34;100.00;99732.13;4992325;28;20139;-47
2022/11/14 06:28:31;;;;;;;6.68;3.42;;;;;;;11.35;100.00;99735.69;4979520;28;20117;-44
2022/11/14 06:31:00;;;;;;;5.47;3.03;;;;;;;11.34;100.00;99729.34;4992325;28;20054;-44
2022/11/14 06:33:28;;;;;;;5.05;2.40;;;;;;;11.32;100.00;99731.69;4992257;28;20058;-43
2022/11/14 06:35:59;;;;;;;5.35;2.88;;;;;;;11.30;100.00;99728.50;4992192;28;20129;-44
2022/11/14 06:38:26;;;;;;;4.78;2.60;;;;;;;11.27;100.00;99729.25;4989523;28;20058;-44
2022/11/14 06:41:20;;;;;;;6.50;2.60;;;;;;;11.26;100.00;99733.19;4992104;28;20154;-44
2022/11/14 06:43:49;;;;;;;7.50;2.78;;;;;;;11.30;100.00;99733.25;4992110;28;20133;-43
2022/11/14 06:46:18;;;;;;;5.25;2.50;;;;;;;11.33;100.00;99749.13;4992140;28;20048;-44
2022/11/14 06:48:46;;;;;;;6.00;3.20;;;;;;;11.33;100.00;99747.13;4991547;28;20053;-44
2022/11/14 06:51:14;;;;;;;6.15;2.78;;;;;;;11.27;100.00;99745.88;4991708;28;20136;-44
2022/11/14 06:53:42;;;;;;;9.50;3.47;;;;;;;11.27;100.00;99754.19;4991600;28;20096;-45
2022/11/14 06:56:11;;;;;;;6.45;2.50;;;;;;;11.25;100.00;99753.75;4977752;28;20057;-44
2022/11/14 06:58:41;;;;;;;8.65;3.50;;;;;;;11.25;100.00;99758.50;4991996;28;20096;-44
2022/11/14 07:01:14;;;;;;;2.72;2.30;;;;;;;11.21;100.00;99760.41;4991799;28;20113;-46
2022/11/14 07:03:42;;;;;;;6.85;2.50;;;;;;;11.18;100.00;99761.97;4991673;28;20085;-46
2022/11/14 07:06:12;;;;;;;8.55;2.83;;;;;;;11.18;100.00;99770.28;4991809;28;20042;-48
2022/11/14 07:08:39;;;;;;;3.70;2.20;;;;;;;11.15;100.00;99782.09;4990378;28;20042;-44
2022/11/14 07:11:07;;;;;;;6.57;2.83;;;;;;;11.12;100.00;99782.84;4990342;28;20054;-44
2022/11/14 07:13:35;;;;;;;5.65;3.28;;;;;;;11.12;100.00;99787.59;4991391;28;20523;-44
2022/11/14 07:16:02;;;;;;;4.22;2.65;;;;;;;11.11;100.00;99795.09;4982690;28;20067;-44
2022/11/14 07:18:30;;;;;;;4.63;2.92;;;;;;;11.08;100.00;99795.84;4991688;28;20444;-44
2022/11/14 07:20:59;;;;;;;4.65;2.95;;;;;;;11.05;100.00;99804.09;4991236;28;20042;-44
2022/11/14 07:23:26;;;;;;;8.23;4.05;;;;;;;11.04;100.00;99814.38;4991818;28;20057;-44
2022/11/14 07:25:53;;;;;;;11.05;3.38;;;;;;;11.04;100.00;99814.38;4990733;28;20078;-44
2022/11/14 07:28:20;;;;;;;4.88;2.72;;;;;;;11.02;100.00;99813.94;4990956;28;20056;-47
2022/11/14 07:30:47;;;;;;;8.35;2.88;;;;;;;11.01;100.00;99804.06;4990948;28;20054;-45
2022/11/14 07:33:13;;;;;;;6.97;2.30;;;;;;;11.01;100.00;99817.91;4990856;28;20404;-44
2022/11/14 07:35:40;;;;;;;3.03;2.35;;;;;;;10.99;100.00;99809.13;4991158;28;20052;-45
2022/11/14 07:38:07;;;;;;;7.00;2.25;;;;;;;10.99;100.00;99817.44;4990664;28;20057;-44
2022/11/14 07:40:33;;;;;;;4.68;1.95;;;;;;;11.00;100.00;99824.59;4991494;28;20053;-44
2022/11/14 07:43:01;;;;;;;5.57;1.90;;;;;;;10.98;100.00;99829.72;4990677;28;20047;-45
2022/11/14 07:45:28;;;;;;;3.13;1.63;;;;;;;10.96;100.00;99835.59;4985785;28;20046;-52
2022/11/14 07:47:56;;;;;;;3.85;1.80;;;;;;;10.94;100.00;99832.41;4982029;28;20050;-46
2022/11/14 07:50:24;;;;;;;5.82;2.03;;;;;;;10.96;100.00;99818.22;4990572;28;20054;-46
2022/11/14 07:52:52;;;;;;;3.40;1.70;;;;;;;10.94;100.00;99826.06;4990566;28;20146;-48
2022/11/14 07:55:20;;;;;;;6.68;1.77;;;;;;;10.95;100.00;99816.59;4989614;28;20145;-45
2022/11/14 07:57:47;;;;;;;4.13;1.60;;;;;;;10.98;100.00;99815.88;4999046;28;20040;-45
2022/11/14 08:00:15;;;;;;;6.10;1.45;;;;;;;10.96;100.00;99799.59;4990290;28;20479;-48
2022/11/14 08:02:44;;;;;;;3.08;1.40;;;;;;;10.98;100.00;99810.31;4980758;28;20063;-46
2022/11/14 08:05:11;;;;;;;1.70;1.10;;;;;;;10.97;100.00;99797.63;4981313;28;20519;-47
2022/11/14 08:07:37;;;;;;;4.10;1.02;;;;;;;10.97;100.00;99801.22;4990325;28;20042;-44
2022/11/14 08:10:05;;;;;;;7.55;2.95;;;;;;;10.98;100.00;99810.31;4990350;28;20169;-44
2022/11/14 08:12:32;;;;;;;4.30;1.10;;;;;;;11.01;100.00;99809.59;4989227;28;20052;-48
2022/11/14 08:14:58;;;;;;;3.03;1.20;;;;;;;11.00;100.00;99807.97;4988912;28;20502;-46
2022/11/14 08:17:25;;;;;;;4.88;1.30;;;;;;;10.98;100.00;99802.03;4988733;28;20121;-47
2022/11/14 08:19:52;;;;;;;4.43;1.35;;;;;;;10.98;100.00;99804.78;4989226;28;20050;-45
2022/11/14 08:22:19;;;;;;;1.83;1.05;;;;;;;10.97;100.00;99800.41;4990393;28;20670;-47
2022/11/14 08:24:45;;;;;;;4.05;1.15;;;;;;;10.97;100.00;99792.09;4989831;28;20481;-45
2022/11/14 08:27:12;;;;;;;3.95;1.17;;;;;;;10.95;100.00;99797.22;4989899;28;20054;-47
2022/11/14 08:29:39;;;;;;;3.08;0.85;;;;;;;10.97;100.00;99795.69;4972351;28;20135;-44
2022/11/14 08:32:06;;;;;;;2.40;1.40;;;;;;;11.00;100.00;99794.13;4990144;28;20559;-46
2022/11/14 08:34:33;;;;;;;6.72;1.15;;;;;;;11.00;100.00;99785.81;4989768;28;20054;-47
2022/11/14 08:37:00;;;;;;;5.75;1.00;;;;;;;11.03;100.00;99785.09;4989000;28;20046;-44
2022/11/14 08:39:28;;;;;;;4.10;1.02;;;;;;;11.06;100.00;99766.91;4988873;28;20128;-44
2022/11/14 08:41:54;;;;;;;4.60;1.40;;;;;;;11.07;100.00;99785.94;4988407;28;20042;-44
2022/11/14 08:44:21;;;;;;;3.35;1.20;;;;;;;11.10;100.00;99784.38;4989625;28;20054;-44
2022/11/14 08:46:49;;;;;;;7.55;1.48;;;;;;;11.11;100.00;99774.91;4989689;28;20097;-43
2022/11/14 08:49:16;;;;;;;2.83;1.80;;;;;;;11.12;100.00;99777.28;4990054;28;20042;-45
2022/11/14 08:51:42;;;;;;;9.85;1.42;;;;;;;11.11;100.00;99770.19;4986635;28;20398;-44
2022/11/14 08:54:09;;;;;;;4.30;1.33;;;;;;;11.14;100.00;99769.44;4988609;28;20057;-44
2022/11/14 08:56:36;;;;;;;5.18;1.33;;;;;;;11.19;100.00;99776.63;4982230;28;20466;-47
2022/11/14 08:59:03;;;;;;;4.15;1.63;;;;;;;11.21;100.00;99763.19;4989459;28;20047;-44
2022/11/14 09:01:31;;;;;;;5.38;1.65;;;;;;;11.28;100.00;99771.63;4989180;28;20393;-46
2022/11/14 09:03:59;;;;;;;6.50;1.48;;;;;;;11.32;100.00;99770.50;4990073;28;20050;-48
2022/11/14 09:06:28;;;;;;;3.95;1.23;;;;;;;11.37;100.00;99772.94;4994016;28;20054;-45
2022/11/14 09:08:54;;;;;;;7.35;1.48;;;;;;;11.44;100.00;99763.91;4992544;28;20092;-44
2022/11/14 09:11:21;;;;;;;8.32;1.33;;;;;;;11.49;100.00;99758.06;4995671;28;20055;-43
2022/11/14 09:13:48;;;;;;;5.57;1.40;;;;;;;11.51;100.00;99762.06;4987115;28;20594;-44
2022/11/14 09:16:15;;;;;;;8.80;1.65;;;;;;;11.54;100.00;99766.06;4979431;28;20062;-44
2022/11/14 09:18:42;;;;;;;6.22;2.03;;;;;;;11.54;100.00;99764.06;4986563;28;20054;-44
2022/11/14 09:21:09;;;;;;;8.80;2.47;;;;;;;11.56;100.00;99756.19;4990115;28;20042;-44
2022/11/14 09:23:36;;;;;;;8.05;2.70;;;;;;;11.58;99.92;99751.06;4988603;28;20046;-44
2022/11/14 09:26:05;;;;;;;6.28;2.00;;;;;;;11.58;100.00;99753.84;4983849;28;20141;-44
2022/11/14 09:28:32;;;;;;;5.38;1.50;;;;;;;11.61;100.00;99743.97;4989171;28;20077;-44
2022/11/14 09:31:05;;;;;;;5.80;1.40;;;;;;;11.62;99.96;99751.91;4989522;28;20043;-45
2022/11/14 09:33:33;;;;;;;7.07;1.35;;;;;;;11.62;99.88;99751.91;4989537;28;20187;-51
2022/11/14 09:36:02;;;;;;;4.60;1.50;;;;;;;11.62;99.49;99751.91;4989193;28;20464;-44
2022/11/14 09:38:30;;;;;;;3.58;1.15;;;;;;;11.61;99.40;99755.84;4989624;28;20146;-44
2022/11/14 09:41:09;;;;;;;6.93;1.45;;;;;;;11.61;99.30;99744.78;4988597;28;20049;-44
2022/11/14 09:44:04;;;;;;;3.80;1.05;;;;;;;11.60;99.25;99743.16;4987734;28;20121;-44
2022/11/14 09:46:36;;;;;;;8.48;3.22;;;;;;;11.60;99.30;99743.16;4995672;28;20068;-44
2022/11/14 09:49:10;;;;;;;3.28;1.23;;;;;;;11.59;99.06;99752.69;4989518;28;20053;-48
2022/11/14 09:51:46;;;;;;;5.38;1.17;;;;;;;11.56;98.88;99750.66;4989005;28;20056;-44
2022/11/14 09:54:24;;;;;;;3.15;1.20;;;;;;;11.54;98.58;99754.97;4987974;28;20046;-45
2022/11/14 09:56:53;;;;;;;8.70;1.40;;;;;;;11.52;98.44;99752.56;4992420;28;20039;-45
2022/11/14 09:59:19;;;;;;;5.07;1.30;;;;;;;11.54;98.31;99761.28;4988969;28;20061;-46
2022/11/14 10:01:52;;;;;;;7.75;1.23;;;;;;;11.53;98.23;99764.44;4988059;28;20053;-45
2022/11/14 10:04:32;;;;;;;4.38;1.60;;;;;;;11.58;98.40;99758.56;4988702;28;20436;-50
2022/11/14 10:07:14;;;;;;;5.65;1.42;;;;;;;11.58;97.98;99764.94;4987592;28;20481;-46
2022/11/14 10:09:51;;;;;;;4.07;1.20;;;;;;;11.60;98.11;99765.34;4986339;28;20508;-44
2022/11/14 10:12:26;;;;;;;5.20;1.13;;;;;;;11.63;97.95;99759.06;4989254;28;20049;-48
2022/11/14 10:14:56;;;;;;;3.67;0.82;;;;;;;11.63;97.70;99764.59;4987466;28;20049;-45
2022/11/14 10:17:41;;;;;;;7.35;1.48;;;;;;;11.68;97.43;99765.44;4988950;28;20453;-44
2022/11/14 10:20:22;;;;;;;6.70;1.20;;;;;;;11.72;97.48;99766.31;4989096;28;20060;-45
2022/11/14 10:22:55;;;;;;;5.32;1.00;;;;;;;11.75;97.15;99768.34;4990327;28;20539;-47
2022/11/14 10:25:35;;;;;;;4.85;1.20;;;;;;;11.80;97.02;99762.47;4992015;28;20489;-44
2022/11/14 10:28:21;;;;;;;;;;;;;;;11.79;97.02;99766.41;4993085;28;20527;-45
2022/11/14 10:31:09;;;;;;;6.43;1.48;;;;;;;11.79;97.03;99769.16;4992415;28;20421;-44
2022/11/14 10:33:56;;;;;;;11.93;0.88;;;;;;;11.82;96.92;99771.19;4992002;28;20403;-44
2022/11/14 10:36:37;;;;;;;5.20;0.90;;;;;;;11.83;96.88;99767.25;4992305;28;20391;-44
2022/11/14 10:39:15;;;;;;;3.10;1.00;;;;;;;11.84;96.75;99771.59;4992026;28;20058;-44
2022/11/14 10:41:43;;;;;;;2.88;0.90;;;;;;;11.83;96.34;99768.06;4991923;28;20125;-46
2022/11/14 10:44:35;;;;;;;4.43;0.93;;;;;;;11.84;96.08;99768.84;4965205;28;20047;-45
2022/11/14 10:47:09;;;;;;;5.68;1.38;;;;;;;11.85;95.63;99759.34;4993668;28;20504;-48
2022/11/14 10:49:37;;;;;;;5.05;1.00;;;;;;;11.87;95.65;99768.88;4991931;28;20050;-45
2022/11/14 10:52:11;;;;;;;2.95;0.80;;;;;;;11.92;95.71;99770.53;4991463;28;20484;-44
2022/11/14 10:55:07;;;;;;;2.50;0.80;;;;;;;11.94;95.38;99768.19;4992015;28;20418;-46
2022/11/14 10:57:34;;;;;;;3.45;0.93;;;;;;;11.93;95.12;99767.38;4986763;28;20062;-50
2022/11/14 11:00:10;;;;;;;2.75;0.70;;;;;;;11.94;94.78;99766.19;4982862;28;20077;-45
2022/11/14 11:02:55;;;;;;;4.50;1.17;;;;;;;11.97;94.61;99762.66;4991164;28;20058;-49
2022/11/14 11:05:28;;;;;;;5.90;1.30;;;;;;;12.00;94.18;99752.78;4998261;28;20100;-44
2022/11/14 11:13:59;;;;;;;4.60;0.98;;;;;;;12.03;93.20;99749.25;4991208;28;20053;-45
2022/11/14 11:16:28;;;;;;;3.65;1.33;;;;;;;12.03;93.19;99750.06;4991285;28;20043;-48
2022/11/14 11:19:25;;;;;;;3.17;0.70;;;;;;;12.04;92.96;99745.31;4973603;28;20452;-45
2022/11/14 11:21:52;;;;;;;4.40;1.20;;;;;;;12.03;92.81;99744.53;4991012;28;20047;-45
2022/11/14 11:24:33;;;;;;;4.07;0.95;;;;;;;11.99;92.34;99731.78;4991029;28;20038;-44
2022/11/14 11:27:19;;;;;;;2.97;0.80;;;;;;;11.96;92.17;99735.31;4991187;28;20043;-46
2022/11/14 11:29:46;;;;;;;4.53;1.55;;;;;;;11.97;92.15;99734.13;4990874;28;20046;-48
2022/11/14 11:32:24;;;;;;;1.92;1.20;;;;;;;11.99;92.15;99723.47;4990887;28;20050;-46
2022/11/14 11:34:52;;;;;;;0.68;0.43;;;;;;;11.98;91.75;99721.88;4990403;28;20044;-47
2022/11/14 11:37:35;;;;;;;2.90;0.90;;;;;;;12.00;91.49;99717.53;4990454;28;20522;-45
2022/11/14 11:40:05;;;;;;;2.45;0.50;;;;;;;12.06;91.21;99715.22;4990793;28;20077;-50
2022/11/14 11:42:35;;;;;;;2.60;0.77;;;;;;;12.12;90.49;99716.47;4990545;28;20054;-48